createdAt,value
2018-10-07T00:01:23.358Z,97194.48
2018-10-07T00:03:52.661Z,97193.14
2018-10-07T00:06:21.942Z,97191.42
2018-10-07T00:08:51.215Z,97189.61
2018-10-07T00:11:20.698Z,97189.34
2018-10-07T00:13:50.013Z,97195.34
2018-10-07T00:16:19.476Z,97185.86
2018-10-07T00:18:48.849Z,97193.69
2018-10-07T00:21:18.383Z,97197.75
2018-10-07T00:23:47.670Z,97197.58
2018-10-07T00:26:17.159Z,97199.45
2018-10-07T00:28:46.602Z,97204.98
2018-10-07T00:31:16.166Z,97208.20
2018-10-07T00:33:45.714Z,97214.09
2018-10-07T00:36:15.124Z,97213.08
2018-10-07T00:38:44.517Z,97217.98
2018-10-07T00:41:13.919Z,97211.34
2018-10-07T00:43:43.305Z,97221.02
2018-10-07T00:46:12.615Z,97217.53
2018-10-07T00:48:42.019Z,97218.91
2018-10-07T00:51:11.306Z,97224.05
2018-10-07T00:53:40.606Z,97221.06
2018-10-07T00:56:09.916Z,97217.31
2018-10-07T00:58:39.145Z,97218.84
2018-10-07T01:01:08.498Z,97227.98
2018-10-07T01:03:37.844Z,97218.61
2018-10-07T01:06:07.419Z,97221.06
2018-10-07T01:08:36.711Z,97217.53
2018-10-07T01:11:06.134Z,97221.02
2018-10-07T01:13:35.854Z,97222.48
2018-10-07T01:16:05.230Z,97214.55
2018-10-07T01:18:34.459Z,97218.87
2018-10-07T01:21:03.733Z,97219.77
2018-10-07T01:23:33.012Z,97220.62
2018-10-07T01:26:02.334Z,97220.13
2018-10-07T01:28:31.585Z,97222.88
2018-10-07T01:31:00.872Z,97224.76
2018-10-07T01:33:30.165Z,97218.91
2018-10-07T01:35:59.375Z,97226.41
2018-10-07T01:38:28.821Z,97222.43
2018-10-07T01:40:58.094Z,97224.00
2018-10-07T01:43:27.470Z,97225.14
2018-10-07T01:45:56.745Z,97229.50
2018-10-07T01:48:26.046Z,97229.77
2018-10-07T01:50:55.393Z,97237.50
2018-10-07T01:53:24.646Z,97232.68
2018-10-07T01:55:53.942Z,97235.09
2018-10-07T01:58:23.206Z,97231.08
2018-10-07T02:00:52.504Z,97228.16
2018-10-07T02:03:21.842Z,97233.02
2018-10-07T02:05:51.203Z,97236.80
2018-10-07T02:08:20.512Z,97231.52
2018-10-07T02:10:49.855Z,97229.94
2018-10-07T02:13:19.212Z,97228.94
2018-10-07T02:15:48.668Z,97231.11
2018-10-07T02:18:18.031Z,97234.34
2018-10-07T02:20:47.480Z,97233.58
2018-10-07T02:23:17.780Z,97238.47
2018-10-07T02:25:47.192Z,97242.22
2018-10-07T02:28:16.518Z,97253.48
2018-10-07T02:30:45.954Z,97247.88
2018-10-07T02:33:15.431Z,97248.20
2018-10-07T02:35:45.007Z,97243.92
2018-10-07T02:38:14.474Z,97244.75
2018-10-07T02:40:43.856Z,97250.89
2018-10-07T02:43:13.199Z,97252.80
2018-10-07T02:45:42.474Z,97250.91
2018-10-07T02:48:11.812Z,97257.06
2018-10-07T02:50:42.013Z,97258.16
2018-10-07T02:53:11.335Z,97262.97
2018-10-07T02:55:40.714Z,97271.78
2018-10-07T02:58:10.770Z,97263.83
2018-10-07T03:00:40.107Z,97271.03
2018-10-07T03:03:09.487Z,97269.75
2018-10-07T03:05:38.783Z,97270.27
2018-10-07T03:08:08.066Z,97274.82
2018-10-07T03:10:37.530Z,97274.29
2018-10-07T03:13:06.825Z,97274.33
2018-10-07T03:15:36.231Z,97272.45
2018-10-07T03:18:05.518Z,97275.41
2018-10-07T03:20:34.879Z,97278.62
2018-10-07T03:23:04.131Z,97280.75
2018-10-07T03:25:33.572Z,97283.44
2018-10-07T03:28:02.898Z,97295.46
2018-10-07T03:30:32.190Z,97286.67
2018-10-07T03:33:01.451Z,97294.95
2018-10-07T03:35:30.718Z,97289.38
2018-10-07T03:37:59.965Z,97300.30
2018-10-07T03:40:29.250Z,97310.45
2018-10-07T03:42:58.518Z,97306.19
2018-10-07T03:45:27.780Z,97310.20
2018-10-07T03:47:57.034Z,97310.73
2018-10-07T03:50:26.302Z,97316.62
2018-10-07T03:52:55.727Z,97324.63
2018-10-07T03:55:25.090Z,97323.81
2018-10-07T03:57:54.552Z,97324.86
2018-10-07T04:00:23.834Z,97330.77
2018-10-07T04:02:53.175Z,97324.08
2018-10-07T04:05:22.524Z,97338.22
2018-10-07T04:07:51.843Z,97333.40
2018-10-07T04:10:21.163Z,97340.62
2018-10-07T04:12:50.489Z,97341.41
2018-10-07T04:15:19.886Z,97341.66
2018-10-07T04:17:49.307Z,97344.09
2018-10-07T04:20:18.821Z,97340.89
2018-10-07T04:22:48.223Z,97333.40
2018-10-07T04:25:17.614Z,97342.48
2018-10-07T04:27:47.075Z,97349.14
2018-10-07T04:30:16.496Z,97349.94
2018-10-07T04:32:46.332Z,97351.52
2018-10-07T04:35:15.797Z,97341.13
2018-10-07T04:37:45.436Z,97342.19
2018-10-07T04:40:14.849Z,97339.79
2018-10-07T04:42:44.371Z,97344.32
2018-10-07T04:45:13.714Z,97341.64
2018-10-07T04:47:43.058Z,97346.17
2018-10-07T04:50:12.389Z,97340.84
2018-10-07T04:52:41.696Z,97340.52
2018-10-07T04:55:11.002Z,97345.31
2018-10-07T04:57:40.323Z,97346.08
2018-10-07T05:00:09.614Z,97345.30
2018-10-07T05:02:39.003Z,97343.64
2018-10-07T05:05:09.363Z,97344.20
2018-10-07T05:07:38.782Z,97353.25
2018-10-07T05:11:01.075Z,97352.95
2018-10-07T05:13:42.391Z,97360.95
2018-10-07T05:16:12.948Z,97360.64
2018-10-07T05:18:42.970Z,97363.00
2018-10-07T05:21:12.312Z,97368.81
2018-10-07T05:23:41.671Z,97374.39
2018-10-07T05:26:11.013Z,97371.44
2018-10-07T05:28:40.284Z,97376.73
2018-10-07T05:31:09.633Z,97382.30
2018-10-07T05:33:38.902Z,97389.00
2018-10-07T05:36:08.247Z,97396.47
2018-10-07T05:38:37.543Z,97395.13
2018-10-07T05:41:07.010Z,97393.59
2018-10-07T05:43:36.391Z,97398.89
2018-10-07T05:46:05.778Z,97409.82
2018-10-07T05:48:34.968Z,97411.15
2018-10-07T05:51:04.887Z,97415.99
2018-10-07T05:53:34.218Z,97417.08
2018-10-07T05:56:03.513Z,97421.32
2018-10-07T05:58:33.807Z,97427.70
2018-10-07T06:01:08.569Z,97425.31
2018-10-07T06:05:52.514Z,97435.73
2018-10-07T06:08:22.861Z,97441.41
2018-10-07T06:10:52.312Z,97442.25
2018-10-07T06:13:21.595Z,97444.39
2018-10-07T06:15:51.023Z,97450.73
2018-10-07T06:18:20.451Z,97451.55
2018-10-07T06:20:49.889Z,97451.30
2018-10-07T06:23:19.438Z,97457.75
2018-10-07T06:25:48.922Z,97455.98
2018-10-07T06:28:18.499Z,97462.67
2018-10-07T06:30:48.189Z,97464.34
2018-10-07T06:33:17.613Z,97468.38
2018-10-07T06:35:47.067Z,97479.89
2018-10-07T06:38:16.743Z,97479.38
2018-10-07T06:40:46.229Z,97486.59
2018-10-07T06:43:15.760Z,97482.62
2018-10-07T06:45:45.364Z,97483.95
2018-10-07T06:48:14.843Z,97483.44
2018-10-07T06:50:44.268Z,97477.59
2018-10-07T06:53:13.672Z,97483.98
2018-10-07T06:55:43.852Z,97486.13
2018-10-07T06:58:13.357Z,97482.42
2018-10-07T07:00:42.707Z,97489.61
2018-10-07T07:03:12.045Z,97489.61
2018-10-07T07:05:41.343Z,97489.85
2018-10-07T07:08:10.667Z,97490.53
2018-10-07T07:10:40.015Z,97485.91
2018-10-07T07:13:09.452Z,97499.77
2018-10-07T07:15:38.643Z,97501.40
2018-10-07T07:18:08.146Z,97512.83
2018-10-07T07:20:37.465Z,97516.78
2018-10-07T07:23:06.906Z,97519.70
2018-10-07T07:25:36.205Z,97524.37
2018-10-07T07:28:05.509Z,97521.78
2018-10-07T07:30:34.815Z,97537.20
2018-10-07T07:33:04.156Z,97541.38
2018-10-07T07:35:33.499Z,97539.67
2018-10-07T07:38:02.812Z,97546.52
2018-10-07T07:40:32.267Z,97550.97
2018-10-07T07:43:01.592Z,97548.11
2018-10-07T07:45:30.978Z,97550.44
2018-10-07T07:48:00.352Z,97562.16
2018-10-07T07:50:29.825Z,97566.47
2018-10-07T07:52:59.185Z,97567.66
2018-10-07T07:55:28.497Z,97577.51
2018-10-07T07:57:57.898Z,97577.42
2018-10-07T08:00:27.259Z,97585.43
2018-10-07T08:02:56.674Z,97588.55
2018-10-07T08:05:26.122Z,97589.92
2018-10-07T08:07:55.510Z,97591.36
2018-10-07T08:10:24.837Z,97600.26
2018-10-07T08:12:55.037Z,97595.45
2018-10-07T08:15:24.398Z,97584.74
2018-10-07T08:17:54.124Z,97585.94
2018-10-07T08:20:23.368Z,97582.52
2018-10-07T08:22:52.704Z,97591.31
2018-10-07T08:25:22.010Z,97589.06
2018-10-07T08:27:51.391Z,97597.45
2018-10-07T08:30:21.991Z,97602.69
2018-10-07T08:32:51.354Z,97603.75
2018-10-07T08:35:20.919Z,97608.05
2018-10-07T08:37:50.295Z,97615.91
2018-10-07T08:40:22.879Z,97605.44
2018-10-07T08:42:52.276Z,97603.41
2018-10-07T08:45:22.617Z,97598.36
2018-10-07T08:47:52.036Z,97599.06
2018-10-07T08:50:22.798Z,97599.61
2018-10-07T08:52:52.414Z,97614.44
2018-10-07T08:55:22.034Z,97605.84
2018-10-07T08:57:51.663Z,97607.55
2018-10-07T09:00:21.075Z,97613.55
2018-10-07T09:02:50.550Z,97615.52
2018-10-07T09:05:19.979Z,97615.48
2018-10-07T09:07:49.499Z,97624.84
2018-10-07T09:10:18.982Z,97641.30
2018-10-07T09:12:52.383Z,97635.72
2018-10-07T09:15:22.007Z,97639.36
2018-10-07T09:17:53.042Z,97640.05
2018-10-07T09:20:22.454Z,97640.31
2018-10-07T09:22:51.802Z,97645.02
2018-10-07T09:25:21.280Z,97647.89
2018-10-07T09:27:53.331Z,97648.27
2018-10-07T09:30:22.701Z,97647.30
2018-10-07T09:32:52.117Z,97658.73
2018-10-07T09:35:24.771Z,97663.76
2018-10-07T09:37:56.384Z,97662.31
2018-10-07T09:40:25.840Z,97661.75
2018-10-07T09:42:55.307Z,97655.62
2018-10-07T09:45:27.059Z,97655.71
2018-10-07T09:47:56.366Z,97659.58
2018-10-07T09:50:26.880Z,97653.45
2018-10-07T09:52:56.156Z,97658.03
2018-10-07T09:55:25.777Z,97658.02
2018-10-07T09:57:55.119Z,97666.52
2018-10-07T10:00:29.544Z,97659.66
2018-10-07T10:02:58.845Z,97667.80
2018-10-07T10:05:29.535Z,97671.06
2018-10-07T10:07:58.815Z,97674.89
2018-10-07T10:10:28.353Z,97668.16
2018-10-07T10:12:57.683Z,97667.63
2018-10-07T10:15:27.023Z,97658.77
2018-10-07T10:18:06.202Z,97659.35
2018-10-07T10:20:45.742Z,97665.36
2018-10-07T10:23:41.017Z,97669.78
2018-10-07T10:26:17.948Z,97672.53
2018-10-07T10:29:24.628Z,97667.88
2018-10-07T10:32:35.657Z,97675.18
2018-10-07T10:35:36.770Z,97670.93
2018-10-07T10:38:18.408Z,97670.34
2018-10-07T10:40:52.818Z,97669.13
2018-10-07T10:43:46.676Z,97667.56
2018-10-07T10:46:31.946Z,97669.84
2018-10-07T10:49:15.624Z,97667.45
2018-10-07T10:51:58.945Z,97677.48
2018-10-07T10:54:44.121Z,97673.58
2018-10-07T10:57:26.662Z,97663.17
2018-10-07T11:00:08.916Z,97661.07
2018-10-07T11:04:03.419Z,97660.87
2018-10-07T11:06:56.936Z,97660.36
2018-10-07T11:11:43.011Z,97656.89
2018-10-07T11:15:27.068Z,97649.22
2018-10-07T11:20:14.938Z,97653.20
2018-10-07T11:24:07.575Z,97658.47
2018-10-07T11:28:05.827Z,97656.94
2018-10-07T11:31:02.166Z,97660.69
2018-10-07T11:34:19.042Z,97658.54
2018-10-07T11:38:04.617Z,97653.86
2018-10-07T11:40:51.718Z,97651.13
2018-10-07T11:43:34.085Z,97656.70
2018-10-07T11:46:17.860Z,97656.62
2018-10-07T11:48:59.367Z,97656.53
2018-10-07T11:53:47.901Z,97661.24
2018-10-07T11:56:17.426Z,97668.32
2018-10-07T11:58:47.440Z,97664.89
2018-10-07T12:01:17.258Z,97664.11
2018-10-07T12:03:47.051Z,97669.45
2018-10-07T12:06:16.641Z,97669.13
2018-10-07T12:08:46.326Z,97664.20
2018-10-07T12:11:15.812Z,97663.70
2018-10-07T12:13:46.343Z,97666.51
2018-10-07T12:16:15.830Z,97667.47
2018-10-07T12:18:45.316Z,97668.26
2018-10-07T12:21:14.715Z,97659.41
2018-10-07T12:23:44.098Z,97671.70
2018-10-07T12:26:13.439Z,97675.30
2018-10-07T12:28:42.779Z,97667.95
2018-10-07T12:31:12.231Z,97670.07
2018-10-07T12:33:41.606Z,97671.25
2018-10-07T12:36:10.951Z,97670.55
2018-10-07T12:38:40.276Z,97668.78
2018-10-07T12:41:09.555Z,97667.66
2018-10-07T12:43:38.855Z,97675.94
2018-10-07T12:46:08.219Z,97679.23
2018-10-07T12:48:37.591Z,97679.73
2018-10-07T12:51:07.322Z,97681.36
2018-10-07T12:53:36.670Z,97687.68
2018-10-07T12:56:06.234Z,97684.81
2018-10-07T12:58:35.560Z,97687.53
2018-10-07T13:01:04.923Z,97693.81
2018-10-07T13:03:34.254Z,97692.23
2018-10-07T13:06:03.665Z,97684.53
2018-10-07T13:08:32.956Z,97684.80
2018-10-07T13:11:02.364Z,97688.02
2018-10-07T13:13:31.724Z,97685.92
2018-10-07T13:16:01.010Z,97692.53
2018-10-07T13:18:30.347Z,97685.78
2018-10-07T13:20:59.678Z,97687.91
2018-10-07T13:23:29.043Z,97694.15
2018-10-07T13:25:58.311Z,97691.72
2018-10-07T13:28:27.643Z,97691.48
2018-10-07T13:30:56.886Z,97692.78
2018-10-07T13:33:26.336Z,97697.09
2018-10-07T13:35:55.680Z,97691.56
2018-10-07T13:38:28.516Z,97689.16
2018-10-07T13:40:59.900Z,97687.88
2018-10-07T13:43:30.827Z,97686.89
2018-10-07T13:46:00.157Z,97694.83
2018-10-07T13:48:29.601Z,97691.72
2018-10-07T13:50:58.851Z,97700.73
2018-10-07T13:53:28.487Z,97698.55
2018-10-07T13:55:57.680Z,97697.72
2018-10-07T13:58:26.991Z,97691.89
2018-10-07T14:00:56.306Z,97687.41
2018-10-07T14:03:25.712Z,97691.43
2018-10-07T14:05:54.995Z,97697.42
2018-10-07T14:08:28.152Z,97700.08
2018-10-07T14:10:57.594Z,97697.22
2018-10-07T14:13:27.322Z,97699.26
2018-10-07T14:15:56.638Z,97695.84
2018-10-07T14:18:26.734Z,97692.67
2018-10-07T14:20:55.998Z,97692.27
2018-10-07T14:23:25.389Z,97689.08
2018-10-07T14:25:54.704Z,97691.84
2018-10-07T14:28:23.990Z,97689.36
2018-10-07T14:30:53.312Z,97695.31
2018-10-07T14:33:23.273Z,97690.70
2018-10-07T14:35:52.575Z,97698.84
2018-10-07T14:38:23.353Z,97701.50
2018-10-07T14:40:52.759Z,97687.94
2018-10-07T14:43:22.644Z,97694.01
2018-10-07T14:45:51.923Z,97709.63
2018-10-07T14:48:21.416Z,97697.34
2018-10-07T14:50:50.766Z,97704.27
2018-10-07T14:53:20.179Z,97698.67
2018-10-07T14:55:49.543Z,97703.23
2018-10-07T14:58:19.042Z,97702.73
2018-10-07T15:00:48.456Z,97701.02
2018-10-07T15:03:17.915Z,97711.30
2018-10-07T15:05:47.363Z,97705.78
2018-10-07T15:08:16.786Z,97706.43
2018-10-07T15:10:46.271Z,97706.58
2018-10-07T15:13:15.743Z,97706.89
2018-10-07T15:15:45.197Z,97705.70
2018-10-07T15:18:14.688Z,97703.94
2018-10-07T15:20:44.106Z,97709.89
2018-10-07T15:23:13.461Z,97711.00
2018-10-07T15:25:42.867Z,97704.23
2018-10-07T15:28:12.249Z,97708.29
2018-10-07T15:30:41.598Z,97707.08
2018-10-07T15:33:10.843Z,97713.52
2018-10-07T15:35:40.210Z,97714.82
2018-10-07T15:38:09.462Z,97713.69
2018-10-07T15:40:38.884Z,97717.06
2018-10-07T15:43:08.229Z,97718.61
2018-10-07T15:45:37.490Z,97725.59
2018-10-07T15:48:07.032Z,97723.86
2018-10-07T15:50:36.308Z,97731.26
2018-10-07T15:53:05.912Z,97732.14
2018-10-07T15:55:35.266Z,97738.81
2018-10-07T15:58:04.633Z,97740.69
2018-10-07T16:00:34.041Z,97743.60
2018-10-07T16:03:03.459Z,97746.30
2018-10-07T16:05:32.856Z,97747.67
2018-10-07T16:08:02.205Z,97753.01
2018-10-07T16:10:32.328Z,97748.70
2018-10-07T16:13:01.659Z,97751.70
2018-10-07T16:15:30.992Z,97754.77
2018-10-07T16:18:00.334Z,97764.05
2018-10-07T16:20:29.663Z,97762.89
2018-10-07T16:22:58.968Z,97766.12
2018-10-07T16:25:28.222Z,97766.09
2018-10-07T16:27:57.487Z,97769.22
2018-10-07T16:30:26.951Z,97774.64
2018-10-07T16:32:56.264Z,97771.38
2018-10-07T16:35:25.584Z,97772.88
2018-10-07T16:37:54.872Z,97773.11
2018-10-07T16:40:24.211Z,97777.78
2018-10-07T16:42:53.893Z,97779.17
2018-10-07T16:45:23.219Z,97784.72
2018-10-07T16:47:52.451Z,97788.83
2018-10-07T16:50:21.914Z,97793.52
2018-10-07T16:52:51.735Z,97794.06
2018-10-07T16:55:21.180Z,97800.17
2018-10-07T16:57:50.522Z,97801.09
2018-10-07T17:00:20.835Z,97800.16
2018-10-07T17:02:50.235Z,97798.16
2018-10-07T17:05:19.608Z,97796.20
2018-10-07T17:07:49.071Z,97802.00
2018-10-07T17:10:18.499Z,97806.58
2018-10-07T17:12:48.005Z,97810.48
2018-10-07T17:15:17.400Z,97821.89
2018-10-07T17:17:46.968Z,97818.30
2018-10-07T17:20:16.527Z,97823.41
2018-10-07T17:22:46.104Z,97834.28
2018-10-07T17:25:15.640Z,97836.54
2018-10-07T17:27:45.087Z,97838.34
2018-10-07T17:30:14.589Z,97839.77
2018-10-07T17:32:44.059Z,97847.34
2018-10-07T17:35:13.437Z,97850.66
2018-10-07T17:37:42.681Z,97857.64
2018-10-07T17:40:11.998Z,97863.62
2018-10-07T17:42:41.439Z,97867.39
2018-10-07T17:45:10.690Z,97866.70
2018-10-07T17:47:40.264Z,97872.84
2018-10-07T17:50:09.627Z,97882.83
2018-10-07T17:52:38.917Z,97880.14
2018-10-07T17:55:08.361Z,97896.59
2018-10-07T17:57:37.658Z,97888.57
2018-10-07T18:00:07.035Z,97896.70
2018-10-07T18:02:36.435Z,97897.73
2018-10-07T18:05:05.907Z,97895.63
2018-10-07T18:07:35.384Z,97898.09
2018-10-07T18:10:04.805Z,97900.30
2018-10-07T18:12:34.299Z,97906.28
2018-10-07T18:15:03.819Z,97905.97
2018-10-07T18:17:33.090Z,97908.12
2018-10-07T18:20:02.442Z,97918.39
2018-10-07T18:22:31.968Z,97916.52
2018-10-07T18:25:01.284Z,97916.02
2018-10-07T18:27:30.658Z,97919.53
2018-10-07T18:29:59.998Z,97923.30
2018-10-07T18:32:29.456Z,97922.03
2018-10-07T18:34:58.851Z,97928.87
2018-10-07T18:37:28.397Z,97935.42
2018-10-07T18:39:57.833Z,97939.53
2018-10-07T18:42:27.987Z,97942.71
2018-10-07T18:44:57.267Z,97946.59
2018-10-07T18:47:26.976Z,97947.95
2018-10-07T18:49:56.391Z,97955.52
2018-10-07T18:52:25.722Z,97959.55
2018-10-07T18:54:55.082Z,97959.63
2018-10-07T18:57:24.444Z,97964.76
2018-10-07T18:59:53.929Z,97969.37
2018-10-07T19:02:27.686Z,97977.13
2018-10-07T19:04:56.972Z,97976.89
2018-10-07T19:07:26.314Z,97978.23
2018-10-07T19:09:55.697Z,97979.58
2018-10-07T19:12:25.052Z,97987.11
2018-10-07T19:14:54.332Z,97987.09
2018-10-07T19:17:23.776Z,97990.30
2018-10-07T19:19:53.364Z,97992.19
2018-10-07T19:22:27.270Z,97999.70
2018-10-07T19:24:56.856Z,98000.76
2018-10-07T19:27:26.209Z,98003.42
2018-10-07T19:29:55.664Z,98006.64
2018-10-07T19:32:37.703Z,98011.44
2018-10-07T19:35:08.331Z,98018.94
2018-10-07T19:37:40.719Z,98017.88
2018-10-07T19:40:10.100Z,98024.84
2018-10-07T19:42:39.525Z,98029.97
2018-10-07T19:45:09.080Z,98032.34
2018-10-07T19:47:38.441Z,98038.23
2018-10-07T19:50:07.831Z,98040.09
2018-10-07T19:52:37.188Z,98039.25
2018-10-07T19:55:06.531Z,98041.94
2018-10-07T19:57:35.865Z,98046.23
2018-10-07T20:00:05.447Z,98048.05
2018-10-07T20:02:34.805Z,98043.73
2018-10-07T20:05:04.162Z,98048.50
2018-10-07T20:07:34.349Z,98050.90
2018-10-07T20:10:03.748Z,98049.28
2018-10-07T20:12:33.190Z,98050.55
2018-10-07T20:15:02.694Z,98055.94
2018-10-07T20:17:32.049Z,98060.77
2018-10-07T20:20:01.485Z,98059.60
2018-10-07T20:22:30.967Z,98060.09
2018-10-07T20:25:01.609Z,98061.44
2018-10-07T20:27:32.026Z,98063.02
2018-10-07T20:30:02.982Z,98058.19
2018-10-07T20:32:33.276Z,98058.68
2018-10-07T20:35:03.820Z,98063.21
2018-10-07T20:37:34.233Z,98059.48
2018-10-07T20:40:04.742Z,98064.47
2018-10-07T20:42:34.841Z,98072.97
2018-10-07T20:45:04.267Z,98071.58
2018-10-07T20:47:33.566Z,98065.22
2018-10-07T20:50:02.836Z,98066.33
2018-10-07T20:52:32.275Z,98069.53
2018-10-07T20:55:01.557Z,98074.25
2018-10-07T20:57:31.054Z,98076.82
2018-10-07T21:00:00.416Z,98077.53
2018-10-07T21:02:29.918Z,98081.58
2018-10-07T21:04:59.291Z,98073.57
2018-10-07T21:07:28.627Z,98080.52
2018-10-07T21:09:58.114Z,98091.59
2018-10-07T21:12:27.450Z,98085.56
2018-10-07T21:14:56.720Z,98089.26
2018-10-07T21:17:26.076Z,98083.11
2018-10-07T21:19:55.455Z,98082.81
2018-10-07T21:22:24.878Z,98086.23
2018-10-07T21:24:54.211Z,98098.94
2018-10-07T21:27:23.498Z,98096.03
2018-10-07T21:29:52.798Z,98098.68
2018-10-07T21:32:22.119Z,98104.77
2018-10-07T21:34:51.394Z,98105.84
2018-10-07T21:37:20.761Z,98111.75
2018-10-07T21:39:49.977Z,98106.99
2018-10-07T21:42:19.320Z,98098.76
2018-10-07T21:44:48.645Z,98098.71
2018-10-07T21:47:17.988Z,98102.09
2018-10-07T21:49:47.330Z,98102.09
2018-10-07T21:52:16.624Z,98096.41
2018-10-07T21:54:46.127Z,98094.97
2018-10-07T21:57:15.839Z,98095.41
2018-10-07T21:59:45.231Z,98095.14
2018-10-07T22:02:14.764Z,98095.65
2018-10-07T22:04:44.442Z,98092.69
2018-10-07T22:07:14.333Z,98090.48
2018-10-07T22:09:44.132Z,98094.39
2018-10-07T22:12:13.826Z,98088.80
2018-10-07T22:14:43.531Z,98088.67
2018-10-07T22:17:13.547Z,98084.06
2018-10-07T22:19:43.214Z,98073.96
2018-10-07T22:22:12.960Z,98074.98
2018-10-07T22:24:42.572Z,98075.74
2018-10-07T22:27:12.386Z,98076.84
2018-10-07T22:29:42.294Z,98074.94
2018-10-07T22:32:12.236Z,98072.48
2018-10-07T22:34:42.006Z,98075.28
2018-10-07T22:37:11.798Z,98080.08
2018-10-07T22:39:41.661Z,98082.88
2018-10-07T22:42:11.593Z,98084.30
2018-10-07T22:44:41.665Z,98088.52
2018-10-07T22:47:11.549Z,98084.80
2018-10-07T22:49:41.535Z,98092.72
2018-10-07T22:52:12.056Z,98085.77
2018-10-07T22:54:41.684Z,98087.30
2018-10-07T22:57:11.855Z,98093.77
2018-10-07T22:59:41.693Z,98100.63
2018-10-07T23:02:11.629Z,98099.80
2018-10-07T23:04:41.769Z,98099.24
2018-10-07T23:07:11.721Z,98104.20
2018-10-07T23:09:41.566Z,98097.94
2018-10-07T23:12:11.370Z,98101.64
2018-10-07T23:14:41.069Z,98092.27
2018-10-07T23:17:10.881Z,98095.19
2018-10-07T23:19:40.706Z,98094.95
2018-10-07T23:22:10.623Z,98090.38
2018-10-07T23:24:40.362Z,98091.06
2018-10-07T23:27:10.760Z,98090.23
2018-10-07T23:29:40.561Z,98089.91
2018-10-07T23:32:10.393Z,98091.24
2018-10-07T23:34:40.199Z,98096.59
2018-10-07T23:37:10.132Z,98099.95
2018-10-07T23:39:40.140Z,98101.77
2018-10-07T23:42:10.132Z,98094.39
2018-10-07T23:44:39.919Z,98102.61
2018-10-07T23:47:09.557Z,98105.45
2018-10-07T23:49:39.133Z,98107.69
2018-10-07T23:52:09.322Z,98108.44
2018-10-07T23:54:39.814Z,98107.81
2018-10-07T23:57:09.523Z,98113.86
2018-10-07T23:59:39.301Z,98109.60
